Time,TemperatureF,DewpointF,PressureIn,WindDirection,WindDirectionDegrees,WindSpeedMPH,WindSpeedGustMPH,Humidity,HourlyPrecipIn,Conditions,Clouds,dailyrainin,SolarRadiationWatts/m^2,SoftwareType,DateUTC
2013-05-18 00:01:00,56.8,43.9,30.15,ESE,109,2.3,2.3,62,0.00,CLR,,0.00,0.0,WeatherDisplay:10.37,2013-05-18 04:01:00,
2013-05-18 00:02:00,56.8,44.3,30.15,ENE,70,4.6,4.6,63,0.00,CLR,,0.00,0.0,WeatherDisplay:10.37,2013-05-18 04:02:00,
2013-05-18 00:07:00,56.7,44.2,30.14,ESE,103,3.5,3.5,63,0.00,CLR,,0.00,0.0,WeatherDisplay:10.37,2013-05-18 04:07:00,
2013-05-18 00:12:00,56.7,45.1,30.13,ESE,117,3.5,3.5,65,0.00,CLR,,0.00,0.0,WeatherDisplay:10.37,2013-05-18 04:12:00,
2013-05-18 00:17:00,56.5,44.0,30.14,ESE,116,3.5,3.5,63,0.00,CLR,,0.00,0.0,WeatherDisplay:10.37,2013-05-18 04:17:00,
2013-05-18 00:22:00,56.6,44.1,30.14,East,85,4.6,4.6,63,0.00,CLR,,0.00,0.0,WeatherDisplay:10.37,2013-05-18 04:22:00,
2013-05-18 00:27:00,56.6,44.1,30.14,East,86,5.0,5.0,63,0.00,CLR,,0.00,0.0,WeatherDisplay:10.37,2013-05-18 04:27:00,
2013-05-18 00:32:00,56.6,44.6,30.14,East,86,1.0,0.0,64,0.00,CLR,,0.00,0.0,WeatherDisplay:10.37,2013-05-18 04:32:00,
2013-05-18 00:37:00,56.6,44.1,30.14,East,86,3.5,3.5,63,0.00,CLR,,0.00,0.0,WeatherDisplay:10.37,2013-05-18 04:37:00,
2013-05-18 00:42:00,56.5,44.9,30.14,ESE,103,2.3,2.3,65,0.00,CLR,,0.00,0.0,WeatherDisplay:10.37,2013-05-18 04:42:00,
2013-05-18 00:47:00,56.3,44.3,30.13,ESE,103,2.3,2.3,64,0.00,CLR,,0.00,0.0,WeatherDisplay:10.37,2013-05-18 04:47:00,
2013-05-18 00:52:00,56.2,44.6,30.13,East,89,3.5,3.5,65,0.00,CLR,,0.00,0.0,WeatherDisplay:10.37,2013-05-18 04:52:00,
2013-05-18 00:57:00,56.2,44.2,30.13,ESE,109,3.5,3.5,64,0.00,CLR,,0.00,0.0,WeatherDisplay:10.37,2013-05-18 04:57:00,
2013-05-18 01:02:00,56.2,43.8,30.13,East,81,4.6,4.6,63,0.00,CLR,,0.00,0.0,WeatherDisplay:10.37,2013-05-18 05:02:00,
2013-05-18 01:07:00,56.2,43.8,30.14,ESE,104,3.5,3.5,63,0.00,CLR,,0.00,0.0,WeatherDisplay:10.37,2013-05-18 05:07:00,
2013-05-18 01:12:00,56.2,44.2,30.14,ESE,103,1.1,1.1,64,0.00,CLR,,0.00,0.0,WeatherDisplay:10.37,2013-05-18 05:12:00,
2013-05-18 01:17:00,56.2,44.2,30.13,East,79,2.3,2.3,64,0.00,CLR,,0.00,0.0,WeatherDisplay:10.37,2013-05-18 05:17:00,
2013-05-18 01:22:00,56.2,44.2,30.14,ESE,111,3.0,3.0,64,0.00,CLR,,0.00,0.0,WeatherDisplay:10.37,2013-05-18 05:22:00,
2013-05-18 01:27:00,56.1,44.5,30.13,ESE,111,2.3,2.3,65,0.00,CLR,,0.00,0.0,WeatherDisplay:10.37,2013-05-18 05:27:00,
2013-05-18 01:32:00,56.1,43.7,30.14,ESE,103,3.5,3.5,63,0.00,CLR,,0.00,0.0,WeatherDisplay:10.37,2013-05-18 05:32:00,
2013-05-18 01:37:00,56.1,44.1,30.13,ESE,103,2.3,2.3,64,0.00,CLR,,0.00,0.0,WeatherDisplay:10.37,2013-05-18 05:37:00,
2013-05-18 01:42:00,56.0,44.4,30.13,ESE,103,1.1,1.1,65,0.00,CLR,,0.00,0.0,WeatherDisplay:10.37,2013-05-18 05:42:00,
2013-05-18 01:47:00,55.9,44.7,30.13,ESE,103,0.0,0.0,66,0.00,CLR,,0.00,0.0,WeatherDisplay:10.37,2013-05-18 05:47:00,
2013-05-18 01:52:00,55.8,45.0,30.13,ESE,103,0.0,0.0,67,0.00,CLR,,0.00,0.0,WeatherDisplay:10.37,2013-05-18 05:52:00,
2013-05-18 01:57:00,55.7,44.5,30.13,ESE,103,0.0,0.0,66,0.00,CLR,,0.00,0.0,WeatherDisplay:10.37,2013-05-18 05:57:00,
2013-05-18 02:02:00,55.5,44.7,30.13,ESE,103,0.0,0.0,67,0.00,CLR,,0.00,0.0,WeatherDisplay:10.37,2013-05-18 06:02:00,
2013-05-18 02:07:00,55.5,44.3,30.13,ESE,103,1.1,1.1,66,0.00,CLR,,0.00,0.0,WeatherDisplay:10.37,2013-05-18 06:07:00,
2013-05-18 02:12:00,55.5,44.3,30.13,ESE,103,0.0,0.0,66,0.00,CLR,,0.00,0.0,WeatherDisplay:10.37,2013-05-18 06:12:00,
2013-05-18 02:17:00,55.4,44.6,30.13,ESE,103,0.0,0.0,67,0.00,CLR,,0.00,0.0,WeatherDisplay:10.37,2013-05-18 06:17:00,
2013-05-18 02:22:00,55.3,44.5,30.13,ESE,103,2.3,2.3,67,0.00,CLR,,0.00,0.0,WeatherDisplay:10.37,2013-05-18 06:22:00,
2013-05-18 02:27:00,55.3,44.9,30.13,ESE,103,1.1,0.0,68,0.00,CLR,,0.00,0.0,WeatherDisplay:10.37,2013-05-18 06:27:00,
2013-05-18 02:32:00,55.2,44.8,30.13,ESE,103,0.0,0.0,68,0.00,CLR,,0.00,0.0,WeatherDisplay:10.37,2013-05-18 06:32:00,
2013-05-18 02:37:00,55.2,45.6,30.13,ESE,103,0.0,0.0,70,0.00,CLR,,0.00,0.0,WeatherDisplay:10.37,2013-05-18 06:37:00,
2013-05-18 02:42:00,55.0,45.8,30.12,ESE,103,0.0,0.0,71,0.00,CLR,,0.00,0.0,WeatherDisplay:10.37,2013-05-18 06:42:00,
2013-05-18 02:47:00,54.8,45.6,30.12,ESE,103,1.1,1.1,71,0.00,CLR,,0.00,0.0,WeatherDisplay:10.37,2013-05-18 06:47:00,
2013-05-18 02:52:00,54.7,45.5,30.12,ESE,103,1.1,1.1,71,0.00,CLR,,0.00,0.0,WeatherDisplay:10.37,2013-05-18 06:52:00,
2013-05-18 02:57:00,54.6,45.4,30.12,ESE,103,1.1,0.0,71,0.00,CLR,,0.00,0.0,WeatherDisplay:10.37,2013-05-18 06:57:00,
2013-05-18 03:02:00,54.5,46.0,30.12,ESE,103,1.1,1.1,73,0.00,CLR,,0.00,0.0,WeatherDisplay:10.37,2013-05-18 07:02:00,
2013-05-18 03:07:00,54.4,45.6,30.12,ESE,103,0.0,0.0,72,0.00,CLR,,0.00,0.0,WeatherDisplay:10.37,2013-05-18 07:07:00,
2013-05-18 03:12:00,54.3,45.8,30.12,ESE,103,1.0,1.0,73,0.00,CLR,,0.00,0.0,WeatherDisplay:10.37,2013-05-18 07:12:00,
2013-05-18 03:17:00,54.3,46.2,30.13,ESE,103,1.1,0.0,74,0.00,CLR,,0.00,0.0,WeatherDisplay:10.37,2013-05-18 07:17:00,
2013-05-18 03:22:00,54.2,45.4,30.12,ESE,103,2.3,2.3,72,0.00,CLR,,0.00,0.0,WeatherDisplay:10.37,2013-05-18 07:22:00,
2013-05-18 03:27:00,54.2,45.4,30.13,ENE,70,1.1,1.1,72,0.00,CLR,,0.00,0.0,WeatherDisplay:10.37,2013-05-18 07:27:00,
2013-05-18 03:32:00,54.2,45.7,30.13,North,5,3.5,3.5,73,0.00,CLR,,0.00,0.0,WeatherDisplay:10.37,2013-05-18 07:32:00,
2013-05-18 03:37:00,54.2,45.7,30.13,NNE,19,1.1,1.1,73,0.00,CLR,,0.00,0.0,WeatherDisplay:10.37,2013-05-18 07:37:00,
2013-05-18 03:42:00,54.1,46.0,30.12,NE,40,2.3,2.3,74,0.00,CLR,,0.00,0.0,WeatherDisplay:10.37,2013-05-18 07:42:00,
2013-05-18 03:47:00,53.9,45.8,30.12,NE,50,0.0,0.0,74,0.00,CLR,,0.00,0.0,WeatherDisplay:10.37,2013-05-18 07:47:00,
2013-05-18 03:52:00,53.7,45.6,30.12,NE,50,1.1,1.1,74,0.00,CLR,,0.00,0.0,WeatherDisplay:10.37,2013-05-18 07:52:00,
2013-05-18 03:57:00,53.6,45.5,30.12,NE,50,2.3,2.3,74,0.00,CLR,,0.00,0.0,WeatherDisplay:10.37,2013-05-18 07:57:00,
2013-05-18 04:02:00,53.6,45.5,30.12,ENE,67,3.5,3.5,74,0.00,CLR,,0.00,0.0,WeatherDisplay:10.37,2013-05-18 08:02:00,
2013-05-18 04:07:00,53.6,46.2,30.12,ENE,67,2.3,2.3,76,0.00,CLR,,0.00,0.0,WeatherDisplay:10.37,2013-05-18 08:07:00,
2013-05-18 04:12:00,53.6,45.9,30.12,ENE,64,3.5,3.5,75,0.00,CLR,,0.00,0.0,WeatherDisplay:10.37,2013-05-18 08:12:00,
2013-05-18 04:17:00,53.6,45.5,30.12,North,5,3.5,3.5,74,0.00,CLR,,0.00,0.0,WeatherDisplay:10.37,2013-05-18 08:17:00,
2013-05-18 04:22:00,53.6,45.9,30.12,North,350,3.0,3.0,75,0.00,CLR,,0.00,0.0,WeatherDisplay:10.37,2013-05-18 08:22:00,
2013-05-18 04:27:00,53.6,45.5,30.12,North,355,3.5,3.5,74,0.00,CLR,,0.00,0.0,WeatherDisplay:10.37,2013-05-18 08:27:00,
2013-05-18 04:32:00,53.6,45.9,30.12,North,355,1.1,1.1,75,0.00,CLR,,0.00,0.0,WeatherDisplay:10.37,2013-05-18 08:32:00,
2013-05-18 04:37:00,53.6,45.9,30.12,North,355,1.1,1.1,75,0.00,CLR,,0.00,0.0,WeatherDisplay:10.37,2013-05-18 08:37:00,
2013-05-18 04:42:00,53.5,46.1,30.12,North,355,2.3,2.3,76,0.00,CLR,,0.00,0.0,WeatherDisplay:10.37,2013-05-18 08:42:00,
2013-05-18 04:48:00,53.4,45.7,30.12,North,355,1.1,1.1,75,0.00,CLR,,0.00,0.0,WeatherDisplay:10.37,2013-05-18 08:48:00,
2013-05-18 04:53:00,53.4,46.0,30.12,North,355,3.5,3.5,76,0.00,CLR,,0.00,0.0,WeatherDisplay:10.37,2013-05-18 08:53:00,
2013-05-18 04:58:00,53.3,45.9,30.12,North,355,2.3,2.3,76,0.00,CLR,,0.00,0.0,WeatherDisplay:10.37,2013-05-18 08:58:00,
2013-05-18 05:03:00,53.3,45.9,30.12,North,355,3.5,3.5,76,0.00,CLR,,0.00,0.0,WeatherDisplay:10.37,2013-05-18 09:03:00,
2013-05-18 05:08:00,53.3,45.9,30.12,North,355,0.0,0.0,76,0.00,CLR,,0.00,0.0,WeatherDisplay:10.37,2013-05-18 09:08:00,
2013-05-18 05:13:00,53.3,45.9,30.12,North,355,1.0,1.0,76,0.00,CLR,,0.00,0.0,WeatherDisplay:10.37,2013-05-18 09:13:00,
2013-05-18 05:18:00,53.2,46.2,30.12,North,355,1.1,1.1,77,0.00,CLR,,0.00,0.0,WeatherDisplay:10.37,2013-05-18 09:18:00,
2013-05-18 05:23:00,53.2,46.2,30.12,North,355,0.0,0.0,77,0.00,CLR,,0.00,0.0,WeatherDisplay:10.37,2013-05-18 09:23:00,
2013-05-18 05:28:00,53.2,46.5,30.12,North,355,1.1,0.0,78,0.00,CLR,,0.00,0.0,WeatherDisplay:10.37,2013-05-18 09:28:00,
2013-05-18 05:33:00,53.2,46.2,30.12,North,355,2.3,2.3,77,0.00,CLR,,0.00,0.0,WeatherDisplay:10.37,2013-05-18 09:33:00,
2013-05-18 05:38:00,53.2,46.2,30.13,North,355,1.1,0.0,77,0.00,CLR,,0.00,0.0,WeatherDisplay:10.37,2013-05-18 09:38:00,
2013-05-18 05:43:00,53.3,46.6,30.13,North,355,1.1,1.1,78,0.00,CLR,,0.00,0.0,WeatherDisplay:10.37,2013-05-18 09:43:00,
2013-05-18 05:48:00,53.2,46.2,30.13,North,355,0.0,0.0,77,0.00,CLR,,0.00,0.0,WeatherDisplay:10.37,2013-05-18 09:48:00,
2013-05-18 05:53:00,53.2,46.2,30.13,North,355,0.0,0.1,77,0.00,CLR,,0.00,0.0,WeatherDisplay:10.37,2013-05-18 09:53:00,
2013-05-18 05:58:00,53.2,46.5,30.13,North,355,1.1,1.1,78,0.00,CLR,,0.00,0.0,WeatherDisplay:10.37,2013-05-18 09:58:00,
2013-05-18 06:03:00,53.2,46.5,30.13,North,355,1.1,1.1,78,0.00,CLR,,0.00,0.0,WeatherDisplay:10.37,2013-05-18 10:03:00,
2013-05-18 06:08:00,53.2,46.5,30.14,North,355,1.1,0.0,78,0.00,CLR,,0.00,0.0,WeatherDisplay:10.37,2013-05-18 10:08:00,
2013-05-18 06:13:00,53.3,47.0,30.14,North,355,0.0,0.0,79,0.00,CLR,,0.00,0.0,WeatherDisplay:10.37,2013-05-18 10:13:00,
2013-05-18 06:18:00,53.3,46.6,30.14,North,355,0.0,0.0,78,0.00,CLR,,0.00,0.0,WeatherDisplay:10.37,2013-05-18 10:18:00,
2013-05-18 06:23:00,53.3,47.0,30.14,North,355,0.0,0.0,79,0.00,CLR,,0.00,0.0,WeatherDisplay:10.37,2013-05-18 10:23:00,
2013-05-18 06:28:00,53.3,47.0,30.14,North,355,1.1,0.0,79,0.00,CLR,,0.00,0.0,WeatherDisplay:10.37,2013-05-18 10:28:00,
2013-05-18 06:33:00,53.3,47.0,30.14,North,355,1.1,1.1,79,0.00,CLR,,0.00,0.0,WeatherDisplay:10.37,2013-05-18 10:33:00,
2013-05-18 06:38:00,53.4,46.7,30.14,North,355,2.3,2.3,78,0.00,CLR,,0.00,5.0,WeatherDisplay:10.37,2013-05-18 10:38:00,
2013-05-18 06:43:00,53.4,46.4,30.14,North,10,3.5,3.5,77,0.00,CLR,,0.00,5.0,WeatherDisplay:10.37,2013-05-18 10:43:00,
2013-05-18 06:48:00,53.5,46.8,30.14,ENE,77,2.3,2.3,78,0.00,CLR,,0.00,9.0,WeatherDisplay:10.37,2013-05-18 10:48:00,
2013-05-18 06:53:00,53.6,46.9,30.13,ENE,77,2.3,2.3,78,0.00,CLR,,0.00,11.0,WeatherDisplay:10.37,2013-05-18 10:53:00,
2013-05-18 06:58:00,53.6,46.6,30.13,East,82,2.3,2.3,77,0.00,CLR,,0.00,14.0,WeatherDisplay:10.37,2013-05-18 10:58:00,
2013-05-18 07:03:00,53.7,46.7,30.13,East,82,3.5,3.5,77,0.00,CLR,,0.00,21.0,WeatherDisplay:10.37,2013-05-18 11:03:00,
2013-05-18 07:08:00,53.8,46.8,30.13,East,85,3.5,3.5,77,0.00,CLR,,0.00,26.0,WeatherDisplay:10.37,2013-05-18 11:08:00,
2013-05-18 07:13:00,53.9,46.9,30.13,East,85,3.5,3.5,77,0.00,CLR,,0.00,26.0,WeatherDisplay:10.37,2013-05-18 11:13:00,
2013-05-18 07:18:00,54.0,47.0,30.13,ESE,103,2.0,2.0,77,0.00,CLR,,0.00,32.0,WeatherDisplay:10.37,2013-05-18 11:18:00,
2013-05-18 07:23:00,54.1,47.0,30.13,ESE,103,3.5,3.5,77,0.00,CLR,,0.00,35.0,WeatherDisplay:10.37,2013-05-18 11:23:00,
2013-05-18 07:28:00,54.1,47.0,30.13,ESE,103,2.3,2.3,77,0.00,CLR,,0.00,40.0,WeatherDisplay:10.37,2013-05-18 11:28:00,
2013-05-18 07:33:00,54.4,47.0,30.13,ESE,103,3.5,3.5,76,0.00,CLR,,0.00,51.0,WeatherDisplay:10.37,2013-05-18 11:33:00,
2013-05-18 07:38:00,54.6,47.2,30.14,ESE,103,3.5,3.5,76,0.00,CLR,,0.00,62.0,WeatherDisplay:10.37,2013-05-18 11:38:00,
2013-05-18 07:43:00,54.9,47.1,30.14,East,81,2.3,2.3,75,0.00,CLR,,0.00,69.0,WeatherDisplay:10.37,2013-05-18 11:43:00,
2013-05-18 07:48:00,55.1,47.3,30.14,East,81,1.1,1.1,75,0.00,CLR,,0.00,77.0,WeatherDisplay:10.37,2013-05-18 11:48:00,
2013-05-18 07:53:00,55.4,47.6,30.14,East,90,2.3,2.3,75,0.00,CLR,,0.00,81.0,WeatherDisplay:10.37,2013-05-18 11:53:00,
2013-05-18 07:58:00,55.6,48.2,30.14,East,90,3.5,3.5,76,0.00,CLR,,0.00,95.0,WeatherDisplay:10.37,2013-05-18 11:58:00,
2013-05-18 08:03:00,55.9,47.7,30.15,NE,40,3.5,3.5,74,0.00,OVC,,0.00,107.0,WeatherDisplay:10.37,2013-05-18 12:03:00,
2013-05-18 08:08:00,56.0,47.8,30.14,ENE,76,3.5,3.5,74,0.00,OVC,,0.00,113.0,WeatherDisplay:10.37,2013-05-18 12:08:00,
2013-05-18 08:13:00,56.1,47.9,30.14,ENE,65,3.5,3.5,74,0.00,OVC,,0.00,111.0,WeatherDisplay:10.37,2013-05-18 12:13:00,
2013-05-18 08:18:00,56.3,47.8,30.15,NE,55,2.3,2.3,73,0.00,OVC,,0.00,104.0,WeatherDisplay:10.37,2013-05-18 12:18:00,
2013-05-18 08:23:00,56.4,47.5,30.15,ENE,64,3.5,3.5,72,0.00,OVC,,0.00,114.0,WeatherDisplay:10.37,2013-05-18 12:23:00,
2013-05-18 08:28:00,56.6,47.7,30.15,ENE,77,4.6,4.6,72,0.00,OVC,,0.00,128.0,WeatherDisplay:10.37,2013-05-18 12:28:00,
2013-05-18 08:33:00,56.9,47.6,30.14,East,89,4.6,4.6,71,0.00,OVC,,0.00,148.0,WeatherDisplay:10.37,2013-05-18 12:33:00,
2013-05-18 08:38:00,57.2,48.3,30.15,ESE,107,3.5,3.5,72,0.00,OVC,,0.00,160.0,WeatherDisplay:10.37,2013-05-18 12:38:00,
2013-05-18 08:43:00,57.6,48.3,30.14,ESE,113,2.3,2.3,71,0.00,OVC,,0.00,169.0,WeatherDisplay:10.37,2013-05-18 12:43:00,
2013-05-18 08:48:00,57.9,48.2,30.14,ENE,66,3.5,3.5,70,0.00,OVC,,0.00,178.0,WeatherDisplay:10.37,2013-05-18 12:48:00,
2013-05-18 08:53:00,58.2,47.3,30.14,NE,42,3.5,3.5,67,0.00,OVC,,0.00,169.0,WeatherDisplay:10.37,2013-05-18 12:53:00,
2013-05-18 08:58:00,58.6,47.7,30.14,East,80,8.1,8.1,67,0.00,OVC,,0.00,181.0,WeatherDisplay:10.37,2013-05-18 12:58:00,
2013-05-18 09:03:00,58.9,47.6,30.14,East,84,4.6,4.6,66,0.00,OVC,,0.00,216.0,WeatherDisplay:10.37,2013-05-18 13:03:00,
2013-05-18 09:08:00,59.3,47.9,30.14,ESE,103,6.9,6.9,66,0.00,OVC,,0.00,237.0,WeatherDisplay:10.37,2013-05-18 13:08:00,
2013-05-18 09:13:00,59.8,47.6,30.13,SSE,165,5.8,5.8,64,0.00,OVC,,0.00,269.0,WeatherDisplay:10.37,2013-05-18 13:13:00,
2013-05-18 09:18:00,60.4,47.7,30.13,East,89,5.0,5.0,63,0.00,OVC,,0.00,262.0,WeatherDisplay:10.37,2013-05-18 13:18:00,
2013-05-18 09:23:00,61.0,48.7,30.12,ESE,112,5.0,5.0,64,0.00,OVC,,0.00,269.0,WeatherDisplay:10.37,2013-05-18 13:23:00,
2013-05-18 09:28:00,61.7,48.1,30.12,East,98,8.1,8.1,61,0.00,OVC,,0.00,378.0,WeatherDisplay:10.37,2013-05-18 13:28:00,
2013-05-18 09:33:00,62.3,48.2,30.12,ENE,78,5.8,5.8,60,0.00,OVC,,0.00,494.0,WeatherDisplay:10.37,2013-05-18 13:33:00,
2013-05-18 09:38:00,63.0,48.4,30.12,ESE,121,4.6,4.6,59,0.00,OVC,,0.00,545.0,WeatherDisplay:10.37,2013-05-18 13:38:00,
2013-05-18 09:43:00,63.9,48.4,30.12,East,84,8.1,8.1,57,0.00,OVC,,0.00,529.0,WeatherDisplay:10.37,2013-05-18 13:43:00,
2013-05-18 09:48:00,64.6,49.0,30.13,East,92,9.2,9.2,57,0.00,OVC,,0.00,566.0,WeatherDisplay:10.37,2013-05-18 13:48:00,
2013-05-18 09:53:00,65.1,48.5,30.13,NNE,32,6.9,6.9,55,0.00,OVC,,0.00,461.0,WeatherDisplay:10.37,2013-05-18 13:53:00,
2013-05-18 09:58:00,65.1,49.0,30.13,East,86,5.8,5.8,56,0.00,OVC,,0.00,496.0,WeatherDisplay:10.37,2013-05-18 13:58:00,
2013-05-18 10:03:00,65.5,48.4,30.13,ENE,78,6.0,6.0,54,0.00,OVC,,0.00,601.0,WeatherDisplay:10.37,2013-05-18 14:03:00,
2013-05-18 10:08:00,65.9,50.2,30.13,East,101,6.9,6.9,57,0.00,OVC,,0.00,599.0,WeatherDisplay:10.37,2013-05-18 14:08:00,
2013-05-18 10:13:00,66.8,49.1,30.12,ESE,109,6.9,6.9,53,0.00,OVC,,0.00,671.0,WeatherDisplay:10.37,2013-05-18 14:13:00,
2013-05-18 10:18:00,66.9,48.2,30.12,SE,126,10.4,10.4,51,0.00,OVC,,0.00,360.0,WeatherDisplay:10.37,2013-05-18 14:18:00,
2013-05-18 10:23:00,67.0,49.8,30.12,ENE,69,9.2,9.2,54,0.00,OVC,,0.00,654.0,WeatherDisplay:10.37,2013-05-18 14:23:00,
2013-05-18 10:28:00,67.0,48.3,30.12,ENE,63,6.9,6.9,51,0.00,OVC,,0.00,619.0,WeatherDisplay:10.37,2013-05-18 14:28:00,
2013-05-18 10:33:00,67.2,49.5,30.12,ENE,72,9.2,9.2,53,0.00,OVC,,0.00,578.0,WeatherDisplay:10.37,2013-05-18 14:33:00,
2013-05-18 10:38:00,67.1,49.9,30.12,East,97,9.2,9.2,54,0.00,OVC,,0.00,378.0,WeatherDisplay:10.37,2013-05-18 14:38:00,
2013-05-18 10:43:00,66.6,48.9,30.12,NE,53,6.9,6.9,53,0.00,OVC,,0.00,417.0,WeatherDisplay:10.37,2013-05-18 14:43:00,
2013-05-18 10:48:00,66.5,50.3,30.13,ENE,68,4.0,4.0,56,0.00,OVC,,0.00,390.0,WeatherDisplay:10.37,2013-05-18 14:48:00,
2013-05-18 10:53:00,66.5,49.3,30.13,East,90,10.4,10.4,54,0.00,OVC,,0.00,411.0,WeatherDisplay:10.37,2013-05-18 14:53:00,
2013-05-18 10:58:00,66.4,50.7,30.13,ENE,76,5.8,5.8,57,0.00,OVC,,0.00,480.0,WeatherDisplay:10.37,2013-05-18 14:58:00,
2013-05-18 11:03:00,66.5,49.3,30.13,ENE,76,6.9,6.9,54,0.00,OVC,,0.00,531.0,WeatherDisplay:10.37,2013-05-18 15:03:00,
2013-05-18 11:08:00,66.9,49.2,30.13,ENE,65,8.1,8.1,53,0.00,OVC,,0.00,807.0,WeatherDisplay:10.37,2013-05-18 15:08:00,
2013-05-18 11:13:00,67.4,51.6,30.13,East,85,4.6,4.6,57,0.00,CLR,,0.00,800.0,WeatherDisplay:10.37,2013-05-18 15:13:00,
2013-05-18 11:18:00,68.0,49.7,30.12,East,86,6.0,6.0,52,0.00,CLR,,0.00,610.0,WeatherDisplay:10.37,2013-05-18 15:18:00,
2013-05-18 11:23:00,68.1,49.3,30.12,East,80,11.5,11.5,51,0.00,CLR,,0.00,563.0,WeatherDisplay:10.37,2013-05-18 15:23:00,
2013-05-18 11:28:00,68.3,52.0,30.12,ESE,115,8.1,8.1,56,0.00,CLR,,0.00,884.0,WeatherDisplay:10.37,2013-05-18 15:28:00,
2013-05-18 11:33:00,69.1,52.2,30.12,East,94,6.0,6.0,55,0.00,CLR,,0.00,835.0,WeatherDisplay:10.37,2013-05-18 15:33:00,
2013-05-18 11:38:00,69.6,52.2,30.12,East,84,7.0,7.0,54,0.00,CLR,,0.00,867.0,WeatherDisplay:10.37,2013-05-18 15:38:00,
2013-05-18 11:43:00,69.7,50.8,30.12,ENE,70,9.2,9.2,51,0.00,CLR,,0.00,629.0,WeatherDisplay:10.37,2013-05-18 15:43:00,
2013-05-18 11:48:00,69.2,50.8,30.12,NE,41,4.6,4.6,52,0.00,CLR,,0.00,777.0,WeatherDisplay:10.37,2013-05-18 15:48:00,
2013-05-18 11:53:00,69.1,50.2,30.11,NE,45,7.0,7.0,51,0.00,CLR,,0.00,752.0,WeatherDisplay:10.37,2013-05-18 15:53:00,
2013-05-18 11:58:00,69.4,53.0,30.11,East,87,8.1,8.1,56,0.00,CLR,,0.00,816.0,WeatherDisplay:10.37,2013-05-18 15:58:00,
2013-05-18 12:03:00,70.0,50.0,30.11,East,89,7.0,7.0,49,0.00,CLR,,0.00,810.0,WeatherDisplay:10.37,2013-05-18 16:03:00,
2013-05-18 12:08:00,70.4,51.4,30.11,East,96,8.1,8.1,51,0.00,CLR,,0.00,814.0,WeatherDisplay:10.37,2013-05-18 16:08:00,
2013-05-18 12:13:00,70.6,52.1,30.11,ESE,114,6.9,6.9,52,0.00,CLR,,0.00,833.0,WeatherDisplay:10.37,2013-05-18 16:13:00,
2013-05-18 12:18:00,71.0,52.5,30.11,ESE,121,6.9,6.9,52,0.00,CLR,,0.00,840.0,WeatherDisplay:10.37,2013-05-18 16:18:00,
2013-05-18 12:23:00,71.2,51.1,30.10,ESE,106,5.0,5.0,49,0.00,CLR,,0.00,847.0,WeatherDisplay:10.37,2013-05-18 16:23:00,
2013-05-18 12:28:00,71.3,51.7,30.10,ENE,77,10.0,10.0,50,0.00,CLR,,0.00,849.0,WeatherDisplay:10.37,2013-05-18 16:28:00,
2013-05-18 12:33:00,71.6,52.0,30.10,SE,128,6.9,6.9,50,0.00,CLR,,0.00,858.0,WeatherDisplay:10.37,2013-05-18 16:33:00,
2013-05-18 12:38:00,72.2,49.7,30.10,East,90,9.2,9.2,45,0.00,CLR,,0.00,860.0,WeatherDisplay:10.37,2013-05-18 16:38:00,
2013-05-18 12:43:00,72.6,50.6,30.09,ESE,104,10.4,10.4,46,0.00,CLR,,0.00,867.0,WeatherDisplay:10.37,2013-05-18 16:43:00,
2013-05-18 12:48:00,73.4,51.4,30.09,ESE,103,4.6,4.6,46,0.00,CLR,,0.00,867.0,WeatherDisplay:10.37,2013-05-18 16:48:00,
2013-05-18 12:53:00,74.1,52.6,30.09,ENE,74,8.1,8.1,47,0.00,CLR,,0.00,875.0,WeatherDisplay:10.37,2013-05-18 16:53:00,
2013-05-18 12:58:00,74.4,51.1,30.09,East,99,13.0,13.0,44,0.00,CLR,,0.00,874.0,WeatherDisplay:10.37,2013-05-18 16:58:00,
2013-05-18 13:03:00,74.4,50.4,30.09,East,85,6.9,6.9,43,0.00,CLR,,0.00,870.0,WeatherDisplay:10.37,2013-05-18 17:03:00,
2013-05-18 13:08:00,74.8,50.2,30.09,ESE,107,9.2,9.2,42,0.00,CLR,,0.00,884.0,WeatherDisplay:10.37,2013-05-18 17:08:00,
2013-05-18 13:13:00,75.1,51.1,30.09,ESE,109,8.1,8.1,43,0.00,CLR,,0.00,889.0,WeatherDisplay:10.37,2013-05-18 17:13:00,
2013-05-18 13:18:00,75.6,53.4,30.09,SSE,153,4.6,4.6,46,0.00,CLR,,0.00,870.0,WeatherDisplay:10.37,2013-05-18 17:18:00,
2013-05-18 13:23:00,76.4,48.2,30.09,East,87,6.0,6.0,37,0.00,CLR,,0.00,891.0,WeatherDisplay:10.37,2013-05-18 17:23:00,
2013-05-18 13:28:00,76.4,46.7,30.09,East,92,12.7,12.7,35,0.00,CLR,,0.00,882.0,WeatherDisplay:10.37,2013-05-18 17:28:00,
2013-05-18 13:33:00,76.4,48.9,30.08,East,95,8.1,8.1,38,0.00,CLR,,0.00,872.0,WeatherDisplay:10.37,2013-05-18 17:33:00,
2013-05-18 13:38:00,76.8,49.3,30.08,SSE,156,11.0,11.0,38,0.00,CLR,,0.00,895.0,WeatherDisplay:10.37,2013-05-18 17:38:00,
2013-05-18 13:43:00,77.2,47.4,30.08,SSE,160,8.1,8.1,35,0.00,CLR,,0.00,909.0,WeatherDisplay:10.37,2013-05-18 17:43:00,
2013-05-18 13:48:00,77.4,47.6,30.08,SE,138,8.0,8.0,35,0.00,CLR,,0.00,919.0,WeatherDisplay:10.37,2013-05-18 17:48:00,
2013-05-18 13:53:00,77.8,48.7,30.08,ESE,111,3.5,3.5,36,0.00,CLR,,0.00,932.0,WeatherDisplay:10.37,2013-05-18 17:53:00,
2013-05-18 13:58:00,78.0,48.1,30.07,ESE,116,5.8,5.8,35,0.00,CLR,,0.00,956.0,WeatherDisplay:10.37,2013-05-18 17:58:00,
2013-05-18 14:03:00,78.3,49.1,30.07,ESE,110,5.0,5.0,36,0.00,CLR,,0.00,1000.0,WeatherDisplay:10.37,2013-05-18 18:03:00,
2013-05-18 14:08:00,78.3,46.0,30.08,SSE,168,12.7,12.7,32,0.00,CLR,,0.00,670.0,WeatherDisplay:10.37,2013-05-18 18:08:00,
2013-05-18 14:13:00,77.8,45.6,30.07,East,98,10.0,10.0,32,0.00,CLR,,0.00,504.0,WeatherDisplay:10.37,2013-05-18 18:13:00,
2013-05-18 14:18:00,77.1,48.8,30.07,ENE,72,7.0,7.0,37,0.00,CLR,,0.00,853.0,WeatherDisplay:10.37,2013-05-18 18:18:00,
2013-05-18 14:23:00,76.8,47.1,30.07,ESE,117,15.0,15.0,35,0.00,CLR,,0.00,403.0,WeatherDisplay:10.37,2013-05-18 18:23:00,
2013-05-18 14:28:00,76.4,51.6,30.07,SSE,160,6.9,6.9,42,0.00,FEW,,0.00,875.0,WeatherDisplay:10.37,2013-05-18 18:28:00,
2013-05-18 14:33:00,76.8,47.8,30.06,South,171,5.8,5.8,36,0.00,CLR,,0.00,879.0,WeatherDisplay:10.37,2013-05-18 18:33:00,
2013-05-18 14:38:00,77.4,48.3,30.06,SE,135,8.1,8.1,36,0.00,CLR,,0.00,888.0,WeatherDisplay:10.37,2013-05-18 18:38:00,
2013-05-18 14:43:00,77.7,49.3,30.06,ESE,115,8.1,8.1,37,0.00,CLR,,0.00,874.0,WeatherDisplay:10.37,2013-05-18 18:43:00,
2013-05-18 14:48:00,77.9,48.8,30.05,South,173,8.1,8.1,36,0.00,CLR,,0.00,888.0,WeatherDisplay:10.37,2013-05-18 18:48:00,
2013-05-18 14:53:00,78.3,51.3,30.06,SE,136,7.0,7.0,39,0.00,CLR,,0.00,882.0,WeatherDisplay:10.37,2013-05-18 18:53:00,
2013-05-18 14:59:00,78.5,52.8,30.06,South,177,6.9,6.9,41,0.00,CLR,,0.00,872.0,WeatherDisplay:10.37,2013-05-18 18:59:00,
2013-05-18 15:04:00,78.6,52.3,30.05,SE,134,5.8,5.8,40,0.00,CLR,,0.00,865.0,WeatherDisplay:10.37,2013-05-18 19:04:00,
2013-05-18 15:09:00,78.3,49.1,30.05,ESE,109,10.4,10.4,36,0.00,CLR,,0.00,860.0,WeatherDisplay:10.37,2013-05-18 19:09:00,
2013-05-18 15:14:00,78.2,49.8,30.05,East,80,13.8,13.8,37,0.00,CLR,,0.00,861.0,WeatherDisplay:10.37,2013-05-18 19:14:00,
2013-05-18 15:19:00,77.9,48.8,30.05,South,185,11.5,11.5,36,0.00,CLR,,0.00,817.0,WeatherDisplay:10.37,2013-05-18 19:19:00,
2013-05-18 15:24:00,78.3,52.0,30.05,South,183,8.1,8.1,40,0.00,CLR,,0.00,874.0,WeatherDisplay:10.37,2013-05-18 19:24:00,
2013-05-18 15:29:00,78.5,49.3,30.05,South,171,6.9,6.9,36,0.00,BKN,,0.00,345.0,WeatherDisplay:10.37,2013-05-18 19:29:00,
2013-05-18 15:34:00,78.3,49.9,30.05,SSE,167,10.4,10.4,37,0.00,CLR,,0.00,798.0,WeatherDisplay:10.37,2013-05-18 19:34:00,
2013-05-18 15:39:00,78.3,49.9,30.05,East,95,8.1,8.1,37,0.00,CLR,,0.00,833.0,WeatherDisplay:10.37,2013-05-18 19:39:00,
2013-05-18 15:44:00,78.5,50.1,30.05,SSE,164,8.1,8.1,37,0.00,CLR,,0.00,837.0,WeatherDisplay:10.37,2013-05-18 19:44:00,
2013-05-18 15:49:00,78.6,49.4,30.04,ESE,106,8.0,8.6,36,0.00,CLR,,0.00,830.0,WeatherDisplay:10.37,2013-05-18 19:49:00,
2013-05-18 15:54:00,78.8,51.0,30.04,South,187,8.1,8.1,38,0.00,CLR,,0.00,816.0,WeatherDisplay:10.37,2013-05-18 19:54:00,
2013-05-18 15:59:00,78.8,50.3,30.04,SSE,153,8.1,8.1,37,0.00,CLR,,0.00,809.0,WeatherDisplay:10.37,2013-05-18 19:59:00,
2013-05-18 16:04:00,78.8,50.3,30.04,ESE,121,4.6,4.6,37,0.00,CLR,,0.00,816.0,WeatherDisplay:10.37,2013-05-18 20:04:00,
2013-05-18 16:09:00,78.6,48.7,30.04,SE,138,10.4,10.4,35,0.00,CLR,,0.00,724.0,WeatherDisplay:10.37,2013-05-18 20:09:00,
2013-05-18 16:14:00,78.6,52.3,30.04,SE,146,9.2,9.2,40,0.00,CLR,,0.00,738.0,WeatherDisplay:10.37,2013-05-18 20:14:00,
2013-05-18 16:19:00,78.7,50.2,30.04,ESE,104,5.8,5.8,37,0.00,CLR,,0.00,759.0,WeatherDisplay:10.37,2013-05-18 20:19:00,
2013-05-18 16:24:00,78.5,50.1,30.04,SSE,153,10.4,10.4,37,0.00,FEW,,0.00,700.0,WeatherDisplay:10.37,2013-05-18 20:24:00,
2013-05-18 16:29:00,78.7,51.0,30.03,SE,144,6.9,6.9,38,0.00,FEW,,0.00,770.0,WeatherDisplay:10.37,2013-05-18 20:29:00,
2013-05-18 16:34:00,78.8,49.6,30.04,SSE,148,8.1,8.1,36,0.00,BKN,,0.00,295.0,WeatherDisplay:10.37,2013-05-18 20:34:00,
2013-05-18 16:39:00,78.5,55.4,30.03,SE,130,3.5,3.5,45,0.00,SCT,,0.00,659.0,WeatherDisplay:10.37,2013-05-18 20:39:00,
2013-05-18 16:44:00,78.6,50.9,30.03,SSE,162,6.9,6.9,38,0.00,FEW,,0.00,738.0,WeatherDisplay:10.37,2013-05-18 20:44:00,
2013-05-18 16:49:00,78.7,52.3,30.03,SE,142,7.0,7.0,40,0.00,FEW,,0.00,705.0,WeatherDisplay:10.37,2013-05-18 20:49:00,
2013-05-18 16:54:00,78.9,49.7,30.03,ESE,122,9.2,9.2,36,0.00,FEW,,0.00,714.0,WeatherDisplay:10.37,2013-05-18 20:54:00,
2013-05-18 16:59:00,78.7,50.2,30.03,ENE,75,5.8,5.8,37,0.00,SCT,,0.00,708.0,WeatherDisplay:10.37,2013-05-18 20:59:00,
2013-05-18 17:04:00,79.1,54.0,30.03,SSE,167,11.5,11.5,42,0.00,SCT,,0.00,705.0,WeatherDisplay:10.37,2013-05-18 21:04:00,
2013-05-18 17:09:00,79.4,50.9,30.03,SSE,159,6.9,6.9,37,0.00,SCT,,0.00,701.0,WeatherDisplay:10.37,2013-05-18 21:09:00,
2013-05-18 17:14:00,79.6,48.8,30.03,SSW,194,10.4,10.4,34,0.00,SCT,,0.00,694.0,WeatherDisplay:10.37,2013-05-18 21:14:00,
2013-05-18 17:19:00,79.6,51.0,30.03,ESE,107,10.4,10.4,37,0.00,SCT,,0.00,700.0,WeatherDisplay:10.37,2013-05-18 21:19:00,
2013-05-18 17:24:00,79.5,52.4,30.02,ESE,115,8.1,8.1,39,0.00,SCT,,0.00,541.0,WeatherDisplay:10.37,2013-05-18 21:24:00,
2013-05-18 17:29:00,79.4,51.6,30.02,South,177,9.2,9.2,38,0.00,SCT,,0.00,663.0,WeatherDisplay:10.37,2013-05-18 21:29:00,
2013-05-18 17:34:00,79.4,54.3,30.02,ESE,114,5.8,5.8,42,0.00,SCT,,0.00,628.0,WeatherDisplay:10.37,2013-05-18 21:34:00,
2013-05-18 17:39:00,79.4,50.1,30.02,SE,132,10.0,10.0,36,0.00,SCT,,0.00,598.0,WeatherDisplay:10.37,2013-05-18 21:39:00,
2013-05-18 17:44:00,79.3,50.8,30.02,SE,146,8.1,8.1,37,0.00,SCT,,0.00,591.0,WeatherDisplay:10.37,2013-05-18 21:44:00,
2013-05-18 17:49:00,79.3,51.5,30.02,East,90,4.6,4.6,38,0.00,SCT,,0.00,591.0,WeatherDisplay:10.37,2013-05-18 21:49:00,
2013-05-18 17:54:00,79.3,49.3,30.02,SSE,161,11.5,11.5,35,0.00,SCT,,0.00,573.0,WeatherDisplay:10.37,2013-05-18 21:54:00,
2013-05-18 17:59:00,79.1,52.0,30.02,SE,137,8.1,8.1,39,0.00,SCT,,0.00,557.0,WeatherDisplay:10.37,2013-05-18 21:59:00,
2013-05-18 18:04:00,78.9,50.4,30.02,East,90,4.6,4.6,37,0.00,BKN,,0.00,524.0,WeatherDisplay:10.37,2013-05-18 22:04:00,
2013-05-18 18:09:00,78.7,47.2,30.02,ESE,109,8.1,8.1,33,0.00,BKN,,0.00,485.0,WeatherDisplay:10.37,2013-05-18 22:09:00,
2013-05-18 18:14:00,78.4,50.7,30.02,SSE,161,3.5,3.5,38,0.00,BKN,,0.00,425.0,WeatherDisplay:10.37,2013-05-18 22:14:00,
2013-05-18 18:19:00,78.2,49.1,30.02,South,180,6.9,6.9,36,0.00,BKN,,0.00,462.0,WeatherDisplay:10.37,2013-05-18 22:19:00,
2013-05-18 18:24:00,78.2,49.1,30.02,South,184,6.9,6.9,36,0.00,BKN,,0.00,436.0,WeatherDisplay:10.37,2013-05-18 22:24:00,
2013-05-18 18:29:00,78.2,49.1,30.02,SSE,158,9.2,9.2,36,0.00,BKN,,0.00,396.0,WeatherDisplay:10.37,2013-05-18 22:29:00,
2013-05-18 18:34:00,77.9,48.0,30.02,ESE,118,4.6,4.6,35,0.00,BKN,,0.00,371.0,WeatherDisplay:10.37,2013-05-18 22:34:00,
2013-05-18 18:39:00,77.6,50.0,30.02,ENE,76,9.0,9.0,38,0.00,BKN,,0.00,343.0,WeatherDisplay:10.37,2013-05-18 22:39:00,
2013-05-18 18:44:00,77.4,48.3,30.02,SE,145,4.6,4.6,36,0.00,BKN,,0.00,332.0,WeatherDisplay:10.37,2013-05-18 22:44:00,
2013-05-18 18:49:00,77.2,47.4,30.02,ESE,115,3.5,3.5,35,0.00,BKN,,0.00,322.0,WeatherDisplay:10.37,2013-05-18 22:49:00,
2013-05-18 18:54:00,76.8,48.6,30.02,SE,129,9.2,9.2,37,0.00,BKN,,0.00,163.0,WeatherDisplay:10.37,2013-05-18 22:54:00,
2013-05-18 18:59:00,76.4,47.5,30.02,East,95,6.9,6.9,36,0.00,BKN,,0.00,239.0,WeatherDisplay:10.37,2013-05-18 22:59:00,
2013-05-18 19:04:00,76.1,47.9,30.02,ESE,121,6.9,6.9,37,0.00,BKN,,0.00,160.0,WeatherDisplay:10.37,2013-05-18 23:04:00,
2013-05-18 19:09:00,75.9,49.2,30.02,ESE,107,6.9,6.9,39,0.00,BKN,,0.00,162.0,WeatherDisplay:10.37,2013-05-18 23:09:00,
2013-05-18 19:14:00,75.7,46.8,30.02,ESE,115,6.9,6.9,36,0.00,BKN,,0.00,93.0,WeatherDisplay:10.37,2013-05-18 23:14:00,
2013-05-18 19:19:00,75.5,48.1,30.02,SE,137,4.6,4.6,38,0.00,BKN,,0.00,90.0,WeatherDisplay:10.37,2013-05-18 23:19:00,
2013-05-18 19:24:00,75.4,47.3,30.02,ESE,120,6.9,6.9,37,0.00,BKN,,0.00,90.0,WeatherDisplay:10.37,2013-05-18 23:24:00,
2013-05-18 19:29:00,75.2,48.5,30.02,ESE,114,3.5,3.5,39,0.00,BKN,,0.00,83.0,WeatherDisplay:10.37,2013-05-18 23:29:00,
2013-05-18 19:34:00,75.1,47.0,30.02,SE,141,6.9,6.9,37,0.00,BKN,,0.00,77.0,WeatherDisplay:10.37,2013-05-18 23:34:00,
2013-05-18 19:39:00,74.9,46.1,30.02,SSE,152,3.5,3.5,36,0.00,BKN,,0.00,74.0,WeatherDisplay:10.37,2013-05-18 23:39:00,
2013-05-18 19:44:00,74.8,46.8,30.02,SE,129,3.5,3.5,37,0.00,BKN,,0.00,63.0,WeatherDisplay:10.37,2013-05-18 23:44:00,
2013-05-18 19:49:00,74.6,46.6,30.02,ESE,105,3.5,3.5,37,0.00,BKN,,0.00,58.0,WeatherDisplay:10.37,2013-05-18 23:49:00,
2013-05-18 19:54:00,74.5,47.2,30.02,ESE,105,4.6,4.6,38,0.00,CLR,,0.00,53.0,WeatherDisplay:10.37,2013-05-18 23:54:00,
2013-05-18 19:59:00,74.2,46.2,30.02,SSE,149,3.5,3.5,37,0.00,CLR,,0.00,46.0,WeatherDisplay:10.37,2013-05-18 23:59:00,
2013-05-18 20:04:00,73.9,47.4,30.02,SE,127,6.9,6.9,39,0.00,CLR,,0.00,39.0,WeatherDisplay:10.37,2013-05-19 00:04:00,
2013-05-18 20:09:00,73.5,45.6,30.02,SSE,162,5.8,5.8,37,0.00,CLR,,0.00,32.0,WeatherDisplay:10.37,2013-05-19 00:09:00,
2013-05-18 20:14:00,73.2,46.1,30.02,ESE,107,3.5,3.5,38,0.00,CLR,,0.00,28.0,WeatherDisplay:10.37,2013-05-19 00:14:00,
2013-05-18 20:19:00,73.0,45.9,30.02,SE,128,1.1,1.1,38,0.00,CLR,,0.00,32.0,WeatherDisplay:10.37,2013-05-19 00:19:00,
2013-05-18 20:24:00,72.8,46.4,30.02,ESE,117,2.3,2.3,39,0.00,CLR,,0.00,25.0,WeatherDisplay:10.37,2013-05-19 00:24:00,
2013-05-18 20:29:00,72.4,46.0,30.02,SE,146,3.5,3.5,39,0.00,CLR,,0.00,21.0,WeatherDisplay:10.37,2013-05-19 00:29:00,
2013-05-18 20:34:00,72.0,46.3,30.02,ESE,113,2.3,2.3,40,0.00,CLR,,0.00,16.0,WeatherDisplay:10.37,2013-05-19 00:34:00,
2013-05-18 20:39:00,71.5,45.9,30.02,ESE,115,2.3,2.3,40,0.00,CLR,,0.00,12.0,WeatherDisplay:10.37,2013-05-19 00:39:00,
2013-05-18 20:44:00,71.1,45.5,30.02,ESE,113,4.6,4.6,40,0.00,CLR,,0.00,9.0,WeatherDisplay:10.37,2013-05-19 00:44:00,
2013-05-18 20:49:00,70.8,45.9,30.02,SE,137,3.5,3.5,41,0.00,CLR,,0.00,0.0,WeatherDisplay:10.37,2013-05-19 00:49:00,
2013-05-18 20:54:00,70.5,45.7,30.02,SE,128,2.0,2.0,41,0.00,CLR,,0.00,0.0,WeatherDisplay:10.37,2013-05-19 00:54:00,
2013-05-18 20:59:00,70.1,45.3,30.02,SSE,153,3.5,3.5,41,0.00,CLR,,0.00,0.0,WeatherDisplay:10.37,2013-05-19 00:59:00,
2013-05-18 21:04:00,69.7,45.6,30.02,SSE,163,4.6,4.6,42,0.00,CLR,,0.00,0.0,WeatherDisplay:10.37,2013-05-19 01:04:00,
2013-05-18 21:09:00,69.4,45.9,30.02,SE,140,4.6,4.6,43,0.00,CLR,,0.00,0.0,WeatherDisplay:10.37,2013-05-19 01:09:00,
2013-05-18 21:14:00,69.1,45.7,30.02,ESE,123,3.5,3.5,43,0.00,CLR,,0.00,0.0,WeatherDisplay:10.37,2013-05-19 01:14:00,
2013-05-18 21:19:00,68.7,45.3,30.02,SE,146,4.6,4.6,43,0.00,CLR,,0.00,0.0,WeatherDisplay:10.37,2013-05-19 01:19:00,
2013-05-18 21:24:00,68.5,45.7,30.02,SE,142,4.6,4.6,44,0.00,CLR,,0.00,0.0,WeatherDisplay:10.37,2013-05-19 01:24:00,
2013-05-18 21:29:00,68.2,46.0,30.02,SSE,159,3.5,3.5,45,0.00,CLR,,0.00,0.0,WeatherDisplay:10.37,2013-05-19 01:29:00,
2013-05-18 21:34:00,68.0,45.9,30.02,SE,146,2.3,2.3,45,0.00,CLR,,0.00,0.0,WeatherDisplay:10.37,2013-05-19 01:34:00,
2013-05-18 21:39:00,67.7,46.2,30.02,SSE,159,3.5,3.5,46,0.00,CLR,,0.00,0.0,WeatherDisplay:10.37,2013-05-19 01:39:00,
2013-05-18 21:44:00,67.3,46.4,30.02,SE,141,3.5,3.5,47,0.00,CLR,,0.00,0.0,WeatherDisplay:10.37,2013-05-19 01:44:00,
2013-05-18 21:49:00,67.0,46.1,30.02,SE,140,4.6,4.6,47,0.00,CLR,,0.00,0.0,WeatherDisplay:10.37,2013-05-19 01:49:00,
2013-05-18 21:54:00,66.7,46.4,30.02,SE,132,2.3,2.3,48,0.00,CLR,,0.00,0.0,WeatherDisplay:10.37,2013-05-19 01:54:00,
2013-05-18 21:59:00,66.6,46.8,30.03,SSE,147,3.5,3.5,49,0.00,CLR,,0.00,0.0,WeatherDisplay:10.37,2013-05-19 01:59:00,
2013-05-18 22:04:00,66.5,46.7,30.02,SE,144,2.3,2.3,49,0.00,CLR,,0.00,0.0,WeatherDisplay:10.37,2013-05-19 02:04:00,
2013-05-18 22:09:00,66.3,47.1,30.03,SE,144,1.1,1.1,50,0.00,CLR,,0.00,0.0,WeatherDisplay:10.37,2013-05-19 02:09:00,
2013-05-18 22:14:00,66.1,46.9,30.03,SE,138,2.3,2.3,50,0.00,CLR,,0.00,0.0,WeatherDisplay:10.37,2013-05-19 02:14:00,
2013-05-18 22:19:00,65.8,47.2,30.03,SSE,164,1.1,1.1,51,0.00,CLR,,0.00,0.0,WeatherDisplay:10.37,2013-05-19 02:19:00,
2013-05-18 22:24:00,65.5,47.4,30.03,ESE,119,1.1,1.1,52,0.00,CLR,,0.00,0.0,WeatherDisplay:10.37,2013-05-19 02:24:00,
2013-05-18 22:29:00,65.2,47.1,30.03,ESE,119,1.1,1.1,52,0.00,CLR,,0.00,0.0,WeatherDisplay:10.37,2013-05-19 02:29:00,
2013-05-18 22:34:00,65.0,47.4,30.03,ESE,119,1.0,0.0,53,0.00,CLR,,0.00,0.0,WeatherDisplay:10.37,2013-05-19 02:34:00,
2013-05-18 22:39:00,64.7,47.2,30.03,ESE,121,1.0,1.0,53,0.00,CLR,,0.00,0.0,WeatherDisplay:10.37,2013-05-19 02:39:00,
2013-05-18 22:44:00,64.3,47.3,30.03,SE,129,1.1,0.0,54,0.00,CLR,,0.00,0.0,WeatherDisplay:10.37,2013-05-19 02:44:00,
2013-05-18 22:49:00,64.0,47.5,30.03,SE,129,1.1,0.0,55,0.00,CLR,,0.00,0.0,WeatherDisplay:10.37,2013-05-19 02:49:00,
2013-05-18 22:54:00,63.6,47.6,30.03,SE,129,0.0,0.0,56,0.00,CLR,,0.00,0.0,WeatherDisplay:10.37,2013-05-19 02:54:00,
2013-05-18 22:59:00,63.2,47.2,30.03,SE,129,0.0,0.0,56,0.00,CLR,,0.00,0.0,WeatherDisplay:10.37,2013-05-19 02:59:00,
2013-05-18 23:04:00,62.7,47.7,30.02,SE,129,1.1,1.1,58,0.00,CLR,,0.00,0.0,WeatherDisplay:10.37,2013-05-19 03:04:00,
2013-05-18 23:09:00,62.3,47.3,30.02,SSE,153,3.0,3.0,58,0.00,CLR,,0.00,0.0,WeatherDisplay:10.37,2013-05-19 03:09:00,
2013-05-18 23:14:00,62.0,47.5,30.02,SSE,151,0.0,0.0,59,0.00,CLR,,0.00,0.0,WeatherDisplay:10.37,2013-05-19 03:14:00,
2013-05-18 23:19:00,61.7,47.2,30.02,SE,136,3.5,3.5,59,0.00,CLR,,0.00,0.0,WeatherDisplay:10.37,2013-05-19 03:19:00,
2013-05-18 23:24:00,61.8,47.3,30.02,SE,141,3.5,3.5,59,0.00,CLR,,0.00,0.0,WeatherDisplay:10.37,2013-05-19 03:24:00,
2013-05-18 23:29:00,62.2,46.8,30.02,SE,138,3.5,3.5,57,0.00,CLR,,0.00,0.0,WeatherDisplay:10.37,2013-05-19 03:29:00,
2013-05-18 23:34:00,62.5,47.1,30.02,SE,142,3.5,3.5,57,0.00,CLR,,0.00,0.0,WeatherDisplay:10.37,2013-05-19 03:34:00,
2013-05-18 23:39:00,62.6,46.7,30.03,SE,136,1.1,1.1,56,0.00,CLR,,0.00,0.0,WeatherDisplay:10.37,2013-05-19 03:39:00,
2013-05-18 23:44:00,62.6,46.7,30.03,SE,135,1.1,1.1,56,0.00,CLR,,0.00,0.0,WeatherDisplay:10.37,2013-05-19 03:44:00,
2013-05-18 23:49:00,62.4,46.5,30.03,SSE,149,1.1,1.1,56,0.00,CLR,,0.00,0.0,WeatherDisplay:10.37,2013-05-19 03:49:00,
2013-05-18 23:54:00,62.3,46.4,30.02,SSE,149,0.0,0.1,56,0.00,CLR,,0.00,0.0,WeatherDisplay:10.37,2013-05-19 03:54:00,
2013-05-18 23:59:00,62.0,46.6,30.03,SSE,149,1.1,1.1,57,0.00,CLR,,0.00,0.0,WeatherDisplay:10.37,2013-05-19 03:59:00,